Time;durP1;ratioP1;P1;durP2;ratioP2;P2;SDS_P1;SDS_P2;PMS_P1;PMS_P2;Temp;Humidity;BMP_temperature;BMP_pressure;BME280_temperature;BME280_humidity;BME280_pressure;Samples;Min_cycle;Max_cycle;Signal;HPM_P1;HPM_P2
2022/06/10 00:00:34;;;;;;;28.33;5.10;;;21.00;99.90;;;;;;5156501;27;20019;-68
2022/06/10 00:03:00;;;;;;;35.40;6.30;;;21.00;99.90;;;;;;5156165;27;20088;-69
2022/06/10 00:05:29;;;;;;;28.27;5.07;;;20.90;99.90;;;;;;5156595;27;20026;-70
2022/06/10 00:07:57;;;;;;;19.17;4.10;;;20.90;99.90;;;;;;5156014;27;20079;-69
2022/06/10 00:10:25;;;;;;;29.05;4.78;;;20.90;99.90;;;;;;5156447;27;20022;-69
2022/06/10 00:12:52;;;;;;;27.40;4.60;;;21.00;99.90;;;;;;5156021;27;20091;-69
2022/06/10 00:15:19;;;;;;;31.20;5.03;;;20.90;99.90;;;;;;5155940;27;20023;-69
2022/06/10 00:17:46;;;;;;;34.63;5.43;;;20.80;99.90;;;;;;5155914;27;20052;-69
2022/06/10 00:20:15;;;;;;;32.90;5.05;;;20.90;99.90;;;;;;5155514;27;20019;-69
2022/06/10 00:22:41;;;;;;;32.58;5.90;;;20.90;99.90;;;;;;5155829;27;20031;-68
2022/06/10 00:25:08;;;;;;;23.65;4.15;;;20.80;99.90;;;;;;5155965;27;20035;-69
2022/06/10 00:27:34;;;;;;;30.73;4.20;;;20.90;99.90;;;;;;5156020;27;20026;-69
2022/06/10 00:30:00;;;;;;;28.83;5.18;;;20.80;99.90;;;;;;5156183;27;20060;-69
2022/06/10 00:32:26;;;;;;;33.83;4.90;;;20.80;99.90;;;;;;5155689;27;20039;-69
2022/06/10 00:34:52;;;;;;;32.78;4.55;;;20.70;99.90;;;;;;5156007;27;20107;-69
2022/06/10 00:37:18;;;;;;;27.65;4.03;;;20.70;99.90;;;;;;5156252;27;20043;-70
2022/06/10 00:39:44;;;;;;;26.52;4.20;;;20.70;99.90;;;;;;5155926;27;20023;-68
2022/06/10 00:42:11;;;;;;;23.90;4.00;;;20.70;99.90;;;;;;5154129;27;20390;-68
2022/06/10 00:44:46;;;;;;;26.88;4.35;;;20.70;99.90;;;;;;5155570;27;20164;-69
2022/06/10 00:47:30;;;;;;;25.55;3.75;;;20.70;99.90;;;;;;5155769;27;20474;-69
2022/06/10 00:50:00;;;;;;;21.63;3.50;;;20.70;99.90;;;;;;5155711;27;20019;-69
2022/06/10 00:52:38;;;;;;;27.48;4.43;;;20.80;99.90;;;;;;5155914;27;20030;-69
2022/06/10 00:55:07;;;;;;;29.33;3.97;;;20.80;99.90;;;;;;5155799;27;20378;-68
2022/06/10 00:57:38;;;;;;;27.20;4.60;;;20.80;99.90;;;;;;5155331;27;20389;-69
2022/06/10 01:00:10;;;;;;;23.88;3.88;;;20.80;99.90;;;;;;5155322;27;20450;-69
2022/06/10 01:02:38;;;;;;;23.58;4.10;;;20.80;99.90;;;;;;5155227;27;20057;-69
2022/06/10 01:05:14;;;;;;;29.58;4.15;;;20.80;99.90;;;;;;5155070;27;20022;-68
2022/06/10 01:07:42;;;;;;;;;;;20.80;99.90;;;;;;5155914;27;20076;-69
2022/06/10 01:10:12;;;;;;;20.77;3.60;;;20.80;99.90;;;;;;5155253;27;19910;-69
2022/06/10 01:13:09;;;;;;;21.88;3.90;;;20.80;99.90;;;;;;5155179;27;20378;-69
2022/06/10 01:15:50;;;;;;;22.80;3.85;;;20.70;99.90;;;;;;5155184;27;20030;-69
2022/06/10 01:18:25;;;;;;;25.50;4.28;;;20.70;99.90;;;;;;5155030;27;20023;-68
2022/06/10 01:21:06;;;;;;;27.38;4.28;;;20.70;99.90;;;;;;5155149;27;20027;-69
2022/06/10 01:24:11;;;;;;;22.25;4.13;;;20.70;99.90;;;;;;5154913;27;20034;-69
2022/06/10 01:29:48;;;;;;;31.52;4.55;;;20.70;99.90;;;;;;5155068;27;20030;-68
2022/06/10 01:32:39;;;;;;;22.85;4.10;;;20.70;99.90;;;;;;5153831;27;20334;-68
2022/06/10 01:35:42;;;;;;;29.83;4.80;;;20.80;99.90;;;;;;5154969;27;20033;-69
2022/06/10 01:38:23;;;;;;;27.48;4.10;;;20.80;99.90;;;;;;5153066;27;20029;-69
2022/06/10 01:41:22;;;;;;;22.63;3.92;;;20.90;99.90;;;;;;5152900;27;20350;-68
2022/06/10 01:44:04;;;;;;;31.67;4.57;;;20.80;99.90;;;;;;5154749;27;20030;-69
2022/06/10 01:46:33;;;;;;;23.65;4.13;;;20.80;99.90;;;;;;5154815;27;20029;-69
2022/06/10 01:49:20;;;;;;;26.17;4.35;;;20.70;99.90;;;;;;5154847;27;20037;-69
2022/06/10 01:51:59;;;;;;;25.17;3.97;;;20.70;99.90;;;;;;5154247;27;20034;-68
2022/06/10 01:54:48;;;;;;;28.13;5.05;;;20.70;99.90;;;;;;5154346;27;20030;-68
2022/06/10 01:57:38;;;;;;;26.20;4.05;;;20.70;99.90;;;;;;5154580;27;20146;-69
2022/06/10 02:00:16;;;;;;;29.25;5.45;;;20.80;99.90;;;;;;5142881;27;20034;-68
2022/06/10 02:02:52;;;;;;;29.95;4.47;;;20.70;99.90;;;;;;5153732;27;20057;-68
2022/06/10 02:05:21;;;;;;;25.92;4.80;;;20.70;99.90;;;;;;5154362;27;20023;-69
2022/06/10 02:07:54;;;;;;;22.42;3.97;;;20.60;99.90;;;;;;5153689;27;20018;-69
2022/06/10 02:10:39;;;;;;;22.73;4.47;;;20.60;99.90;;;;;;5154190;27;20080;-69
2022/06/10 02:13:29;;;;;;;22.27;3.70;;;20.70;99.90;;;;;;5153929;27;20031;-68
2022/06/10 02:15:59;;;;;;;21.48;4.40;;;20.70;99.90;;;;;;5153766;27;20122;-68
2022/06/10 02:18:34;;;;;;;22.08;4.00;;;20.70;99.90;;;;;;5152305;27;20019;-68
2022/06/10 02:21:11;;;;;;;23.38;4.15;;;20.70;99.90;;;;;;5153744;27;20067;-68
2022/06/10 02:23:37;;;;;;;;;;;20.80;99.90;;;;;;5154531;27;20467;-68
2022/06/10 02:26:06;;;;;;;24.05;3.70;;;20.70;99.90;;;;;;5153742;27;20274;-68
2022/06/10 02:28:39;;;;;;;26.13;3.78;;;20.60;99.90;;;;;;5153274;27;20155;-68
2022/06/10 02:31:23;;;;;;;23.98;4.60;;;20.60;99.90;;;;;;5153550;27;20517;-68
2022/06/10 02:33:49;;;;;;;22.15;4.03;;;20.60;99.90;;;;;;5153426;27;20058;-68
2022/06/10 02:36:28;;;;;;;25.15;3.92;;;20.60;99.90;;;;;;5153742;27;20090;-69
2022/06/10 02:39:03;;;;;;;27.88;4.13;;;20.70;99.90;;;;;;5152387;27;20043;-68
2022/06/10 02:42:00;;;;;;;25.05;3.90;;;20.60;99.90;;;;;;5153319;27;20018;-68
2022/06/10 02:44:46;;;;;;;22.48;4.15;;;20.50;99.90;;;;;;5153329;27;20051;-69
2022/06/10 02:47:29;;;;;;;22.80;4.13;;;20.50;99.90;;;;;;5153408;27;20079;-68
2022/06/10 02:49:55;;;;;;;22.05;3.90;;;20.50;99.90;;;;;;5153647;27;20050;-68
2022/06/10 02:52:23;;;;;;;;;;;20.60;99.90;;;;;;5153376;27;20027;-69
2022/06/10 02:54:49;;;;;;;21.23;4.30;;;20.60;99.90;;;;;;5153068;27;20358;-68
2022/06/10 02:57:21;;;;;;;24.25;4.35;;;20.60;99.90;;;;;;5153421;27;20030;-68
2022/06/10 03:02:56;;;;;;;23.02;3.85;;;20.60;99.90;;;;;;5132481;27;20095;-69
2022/06/10 03:05:38;;;;;;;32.80;4.70;;;20.60;99.90;;;;;;5153049;27;20114;-69
2022/06/10 03:08:12;;;;;;;28.90;3.97;;;20.60;99.90;;;;;;5153198;27;20019;-68
2022/06/10 03:10:53;;;;;;;27.25;4.10;;;20.50;99.90;;;;;;5153282;27;20062;-68
2022/06/10 03:14:02;;;;;;;28.08;4.47;;;20.50;99.90;;;;;;5153738;27;20035;-68
2022/06/10 03:16:34;;;;;;;20.58;4.28;;;20.40;99.90;;;;;;5153252;27;20071;-68
2022/06/10 03:19:18;;;;;;;21.40;3.60;;;20.40;99.90;;;;;;5153227;27;20115;-69
2022/06/10 03:22:17;;;;;;;20.77;4.03;;;20.30;99.90;;;;;;5153617;27;20094;-68
2022/06/10 03:25:24;;;;;;;17.48;3.42;;;20.30;99.90;;;;;;5154109;27;20338;-68
2022/06/10 03:28:42;;;;;;;19.17;3.65;;;20.30;99.90;;;;;;5154367;27;20034;-68
2022/06/10 03:31:42;;;;;;;31.60;4.47;;;20.30;99.90;;;;;;5090597;28;20510;-68
2022/06/10 03:34:21;;;;;;;17.10;3.42;;;20.30;99.90;;;;;;5029774;28;20087;-68
2022/06/10 03:36:48;;;;;;;24.55;4.38;;;20.30;99.90;;;;;;5030022;28;20038;-68
2022/06/10 03:39:15;;;;;;;25.58;3.78;;;20.30;99.90;;;;;;5029604;28;20037;-68
2022/06/10 03:41:54;;;;;;;26.92;3.95;;;20.20;99.90;;;;;;5029555;28;20158;-68
2022/06/10 03:44:21;;;;;;;32.95;4.22;;;20.20;99.90;;;;;;5030111;28;20060;-69
2022/06/10 03:46:50;;;;;;;23.73;4.40;;;20.20;99.90;;;;;;5013278;28;20501;-68
2022/06/10 03:49:21;;;;;;;25.48;4.15;;;20.20;99.90;;;;;;5029597;28;20037;-68
2022/06/10 03:51:47;;;;;;;22.38;4.43;;;20.30;99.90;;;;;;5029863;28;20524;-69
2022/06/10 03:54:18;;;;;;;22.10;3.45;;;20.20;99.90;;;;;;5029231;28;20069;-68
2022/06/10 03:56:45;;;;;;;22.75;4.13;;;20.20;99.90;;;;;;5031818;28;20464;-68
2022/06/10 03:59:11;;;;;;;25.98;4.40;;;20.20;99.90;;;;;;5033343;28;20053;-68
2022/06/10 04:01:37;;;;;;;28.55;4.18;;;20.30;99.90;;;;;;5032492;28;20033;-68
2022/06/10 04:04:04;;;;;;;22.73;4.28;;;20.30;99.90;;;;;;5033143;28;20123;-68
2022/06/10 04:06:31;;;;;;;23.50;3.55;;;20.30;99.90;;;;;;5066159;28;20059;-68
2022/06/10 04:08:57;;;;;;;;;;;20.40;99.90;;;;;;5122310;27;20470;-68
2022/06/10 04:11:23;;;;;;;24.58;4.60;;;20.40;99.90;;;;;;5157018;27;19909;-68
2022/06/10 04:13:49;;;;;;;23.60;4.47;;;20.40;99.90;;;;;;5157143;27;20109;-68
2022/06/10 04:16:15;;;;;;;22.85;4.10;;;20.40;99.90;;;;;;5155363;27;20470;-68
2022/06/10 04:18:41;;;;;;;22.27;3.78;;;20.50;99.90;;;;;;5157320;27;20094;-68
2022/06/10 04:21:07;;;;;;;26.25;4.10;;;20.60;99.90;;;;;;5157244;27;20027;-68
2022/06/10 04:23:33;;;;;;;32.85;4.88;;;20.70;99.90;;;;;;5157686;27;20018;-68
2022/06/10 04:26:00;;;;;;;22.83;4.65;;;20.70;99.90;;;;;;5157180;27;20102;-69
2022/06/10 04:28:27;;;;;;;28.10;4.80;;;20.70;99.90;;;;;;5157533;27;20023;-68
2022/06/10 04:30:55;;;;;;;26.30;4.45;;;20.70;99.90;;;;;;5155707;27;20151;-68
2022/06/10 04:33:21;;;;;;;24.05;4.30;;;20.70;99.90;;;;;;5156795;27;20054;-69
2022/06/10 04:35:50;;;;;;;22.45;4.30;;;20.60;99.90;;;;;;5155284;27;20022;-68
2022/06/10 04:38:19;;;;;;;25.63;4.13;;;20.70;99.90;;;;;;5155635;27;20054;-68
2022/06/10 04:40:47;;;;;;;23.25;4.38;;;20.80;99.90;;;;;;5156861;27;20060;-69
2022/06/10 04:43:13;;;;;;;31.20;5.35;;;20.90;99.90;;;;;;5155498;27;20492;-68
2022/06/10 04:45:46;;;;;;;24.27;4.55;;;20.90;99.90;;;;;;5156968;27;20154;-70
2022/06/10 04:48:13;;;;;;;23.48;4.20;;;21.00;99.90;;;;;;5157109;27;20538;-68
2022/06/10 04:50:40;;;;;;;;;;;21.10;99.90;;;;;;5157226;27;20068;-68
2022/06/10 04:53:06;;;;;;;31.52;4.65;;;21.20;99.90;;;;;;5156932;27;19918;-68
2022/06/10 04:55:33;;;;;;;29.52;5.15;;;21.30;99.90;;;;;;5156780;27;20022;-69
2022/06/10 04:57:59;;;;;;;27.35;5.40;;;21.30;99.90;;;;;;5156683;27;20041;-69
2022/06/10 05:00:28;;;;;;;33.08;5.55;;;21.40;99.90;;;;;;5155180;27;20030;-68
2022/06/10 05:02:55;;;;;;;27.50;4.45;;;22.40;99.90;;;;;;5156447;27;20043;-68
2022/06/10 05:05:22;;;;;;;24.23;4.68;;;24.20;99.90;;;;;;5156521;27;20245;-69
2022/06/10 05:07:48;;;;;;;21.02;3.88;;;26.30;99.90;;;;;;5156723;27;20030;-69
2022/06/10 05:10:16;;;;;;;18.45;4.05;;;28.20;99.90;;;;;;5155445;27;20037;-69
2022/06/10 05:12:44;;;;;;;21.20;4.00;;;30.10;99.90;;;;;;5156087;27;20038;-69
2022/06/10 05:15:15;;;;;;;18.50;3.72;;;31.40;98.30;;;;;;5156093;27;20067;-68
2022/06/10 05:17:42;;;;;;;21.23;4.05;;;33.00;94.70;;;;;;5156346;27;20172;-69
2022/06/10 05:20:12;;;;;;;19.45;4.30;;;34.00;91.90;;;;;;5154795;27;20026;-68
2022/06/10 05:22:38;;;;;;;15.70;3.80;;;34.80;90.40;;;;;;5156177;27;20019;-68
2022/06/10 05:25:04;;;;;;;;;;;35.70;85.70;;;;;;5156286;27;20050;-68
2022/06/10 05:27:30;;;;;;;16.48;3.85;;;35.80;82.80;;;;;;5156180;27;20290;-68
2022/06/10 05:29:56;;;;;;;17.58;4.07;;;36.40;81.20;;;;;;5154531;27;20022;-69
2022/06/10 05:32:22;;;;;;;18.48;4.15;;;37.30;79.60;;;;;;5153879;27;20121;-68
2022/06/10 05:34:48;;;;;;;24.63;4.13;;;37.10;78.20;;;;;;5155572;27;20093;-69
2022/06/10 05:37:19;;;;;;;41.25;5.15;;;37.50;76.20;;;;;;5155218;27;20079;-69
2022/06/10 05:39:46;;;;;;;20.95;4.20;;;38.30;75.70;;;;;;5155555;27;20030;-67
2022/06/10 05:42:12;;;;;;;20.17;3.95;;;38.40;72.30;;;;;;5155082;27;20023;-66
2022/06/10 05:44:41;;;;;;;16.95;3.85;;;36.70;73.90;;;;;;5155487;27;20030;-68
2022/06/10 05:47:11;;;;;;;15.25;3.97;;;37.60;74.70;;;;;;5155778;27;20015;-70
2022/06/10 05:49:40;;;;;;;20.92;4.75;;;38.10;73.90;;;;;;5154733;27;20562;-69
2022/06/10 05:52:10;;;;;;;16.85;4.00;;;38.80;72.80;;;;;;5154518;27;20382;-69
2022/06/10 05:54:39;;;;;;;23.92;4.32;;;39.50;70.40;;;;;;5154472;27;20091;-69
2022/06/10 05:57:06;;;;;;;27.50;4.68;;;40.00;69.50;;;;;;5154931;27;20018;-67
2022/06/10 05:59:33;;;;;;;21.25;4.82;;;40.40;69.10;;;;;;5154847;27;20374;-68
2022/06/10 06:02:02;;;;;;;25.00;4.50;;;41.20;67.00;;;;;;5154104;27;20046;-68
2022/06/10 06:04:28;;;;;;;18.55;4.18;;;41.20;66.60;;;;;;5154172;27;20037;-68
2022/06/10 06:06:55;;;;;;;22.63;4.50;;;39.40;66.50;;;;;;5152518;27;20072;-68
2022/06/10 06:09:22;;;;;;;21.98;5.03;;;39.60;67.60;;;;;;5154246;27;20466;-68
2022/06/10 06:11:50;;;;;;;19.05;4.43;;;39.90;66.80;;;;;;5154397;27;20054;-69
2022/06/10 06:14:18;;;;;;;23.80;4.75;;;39.70;66.80;;;;;;5153541;27;20027;-68
2022/06/10 06:16:53;;;;;;;24.98;4.72;;;40.70;66.20;;;;;;5153888;27;20014;-69
2022/06/10 06:19:20;;;;;;;21.52;4.88;;;41.80;64.50;;;;;;5154211;27;20316;-69
2022/06/10 06:21:46;;;;;;;20.20;4.53;;;42.10;63.20;;;;;;5154663;27;20022;-70
2022/06/10 06:24:12;;;;;;;22.88;4.60;;;42.30;62.30;;;;;;5153143;27;20030;-69
2022/06/10 06:26:38;;;;;;;22.25;4.32;;;41.80;61.70;;;;;;5153448;27;20037;-69
2022/06/10 06:29:04;;;;;;;33.83;4.30;;;42.40;61.50;;;;;;5154520;27;20019;-69
2022/06/10 06:31:30;;;;;;;18.23;4.25;;;42.10;60.90;;;;;;5153147;27;20123;-69
2022/06/10 06:33:56;;;;;;;18.20;4.20;;;41.00;61.40;;;;;;5154500;27;20030;-70
2022/06/10 06:36:25;;;;;;;20.52;4.40;;;41.60;61.60;;;;;;5154415;27;20019;-69
2022/06/10 06:38:52;;;;;;;20.95;4.18;;;42.10;60.20;;;;;;5154794;27;20034;-69
2022/06/10 06:41:19;;;;;;;17.60;4.40;;;42.10;60.70;;;;;;5154335;27;20513;-70
2022/06/10 06:43:46;;;;;;;21.48;4.32;;;42.60;60.30;;;;;;5154367;27;20025;-69
2022/06/10 06:46:14;;;;;;;20.35;4.45;;;42.20;59.20;;;;;;5154368;27;20027;-69
2022/06/10 06:48:41;;;;;;;20.83;4.90;;;42.40;59.60;;;;;;5154211;27;20023;-68
2022/06/10 06:51:08;;;;;;;21.75;4.82;;;41.50;60.60;;;;;;5154390;27;20029;-68
2022/06/10 06:53:34;;;;;;;19.58;4.82;;;39.70;62.50;;;;;;5154097;27;20062;-70
2022/06/10 06:56:07;;;;;;;25.67;5.00;;;37.50;66.00;;;;;;5154527;27;20023;-69
2022/06/10 06:58:33;;;;;;;25.90;5.28;;;36.40;68.40;;;;;;5154210;27;20088;-68
2022/06/10 07:00:59;;;;;;;26.30;5.13;;;35.70;71.00;;;;;;5154177;27;20018;-69
2022/06/10 07:03:26;;;;;;;22.38;4.85;;;34.50;72.80;;;;;;5153838;27;20054;-70
2022/06/10 07:05:53;;;;;;;26.77;5.63;;;34.00;74.30;;;;;;5152681;27;20150;-69
2022/06/10 07:08:19;;;;;;;19.60;4.80;;;33.50;75.70;;;;;;5152608;27;20152;-68
2022/06/10 07:10:46;;;;;;;27.52;4.95;;;33.20;76.60;;;;;;5153881;27;20094;-69
2022/06/10 07:13:13;;;;;;;21.88;4.20;;;33.10;77.10;;;;;;5152605;27;20147;-70
2022/06/10 07:15:41;;;;;;;21.05;4.50;;;32.80;77.80;;;;;;5153942;27;20151;-70
2022/06/10 07:18:07;;;;;;;28.73;5.45;;;33.00;77.00;;;;;;5154261;27;20017;-69
2022/06/10 07:20:35;;;;;;;;;;;32.40;76.80;;;;;;5154198;27;20381;-69
2022/06/10 07:23:01;;;;;;;22.30;4.68;;;31.30;80.00;;;;;;5153883;27;19925;-70
2022/06/10 07:25:30;;;;;;;20.77;4.13;;;31.10;81.20;;;;;;5153894;27;20027;-69
2022/06/10 07:27:56;;;;;;;22.55;4.38;;;31.00;81.40;;;;;;5154052;27;20076;-69
2022/06/10 07:30:25;;;;;;;22.73;4.70;;;31.30;80.20;;;;;;5156287;27;20026;-69
2022/06/10 07:32:51;;;;;;;25.98;5.03;;;31.00;79.50;;;;;;5158239;27;20470;-69
2022/06/10 07:35:20;;;;;;;20.45;4.70;;;30.00;82.10;;;;;;5157874;27;20090;-68
2022/06/10 07:37:47;;;;;;;35.20;5.35;;;30.20;83.50;;;;;;5157804;27;20027;-68
2022/06/10 07:43:08;;;;;;;17.23;3.92;;;30.60;82.90;;;;;;5158230;27;20038;-68
2022/06/10 07:45:35;;;;;;;22.35;4.45;;;30.30;81.80;;;;;;5158052;27;20049;-69
2022/06/10 07:48:01;;;;;;;23.48;4.22;;;30.60;81.30;;;;;;5157926;27;20435;-69
2022/06/10 07:50:27;;;;;;;;;;;30.90;81.40;;;;;;5157620;27;20029;-68
2022/06/10 07:52:53;;;;;;;22.35;4.40;;;31.10;81.10;;;;;;5156737;27;19906;-69
2022/06/10 07:55:19;;;;;;;23.08;4.20;;;30.30;82.50;;;;;;5157017;27;20057;-69
2022/06/10 07:57:46;;;;;;;20.88;3.67;;;30.10;82.60;;;;;;5156879;27;20022;-68
2022/06/10 08:00:14;;;;;;;28.05;5.15;;;29.80;83.30;;;;;;5156782;27;20113;-69
2022/06/10 08:02:40;;;;;;;26.70;4.82;;;29.20;85.60;;;;;;5156668;27;20173;-69
2022/06/10 08:05:11;;;;;;;26.20;4.95;;;28.80;87.60;;;;;;5155117;27;20022;-69
2022/06/10 08:07:37;;;;;;;26.10;5.22;;;28.60;89.70;;;;;;5156772;27;20102;-69
2022/06/10 08:10:05;;;;;;;22.35;4.75;;;28.70;89.80;;;;;;5156957;27;20408;-68
2022/06/10 08:12:32;;;;;;;25.77;5.13;;;29.10;89.10;;;;;;5156981;27;20241;-69
2022/06/10 08:14:58;;;;;;;22.05;4.68;;;29.50;88.40;;;;;;5156643;27;20068;-69
2022/06/10 08:17:24;;;;;;;21.92;4.78;;;29.60;88.60;;;;;;5156883;27;20043;-69
2022/06/10 08:19:50;;;;;;;25.35;5.70;;;30.20;88.00;;;;;;5155796;27;20033;-69
2022/06/10 08:22:35;;;;;;;32.90;5.40;;;30.60;86.70;;;;;;5157088;27;20106;-69
2022/06/10 08:25:07;;;;;;;19.15;4.20;;;30.70;85.80;;;;;;5157066;27;20060;-70
2022/06/10 08:27:34;;;;;;;19.80;4.30;;;30.30;85.50;;;;;;5156784;27;20026;-69
2022/06/10 08:30:03;;;;;;;20.08;4.50;;;29.70;86.70;;;;;;5156813;27;20066;-69
2022/06/10 08:32:29;;;;;;;31.85;6.18;;;29.10;87.70;;;;;;5156758;27;20126;-68
2022/06/10 08:34:55;;;;;;;32.53;6.05;;;28.80;90.00;;;;;;5157001;27;20022;-68
2022/06/10 08:37:21;;;;;;;27.55;5.00;;;28.20;90.90;;;;;;5156984;27;20027;-68
2022/06/10 08:39:47;;;;;;;25.02;4.75;;;28.00;91.40;;;;;;5156604;27;20505;-68
2022/06/10 08:42:35;;;;;;;29.85;5.10;;;28.00;91.70;;;;;;5155787;27;20482;-68
2022/06/10 08:45:30;;;;;;;24.25;5.22;;;28.20;91.60;;;;;;5157078;27;20075;-69
2022/06/10 08:48:18;;;;;;;23.63;4.15;;;28.20;91.40;;;;;;5156877;27;20045;-69
2022/06/10 08:50:50;;;;;;;21.52;4.38;;;27.90;91.70;;;;;;5155917;27;20429;-67
2022/06/10 08:53:27;;;;;;;22.15;4.28;;;28.30;91.40;;;;;;5155655;27;20046;-70
2022/06/10 08:56:14;;;;;;;28.83;5.40;;;28.70;91.20;;;;;;5156275;27;20018;-69
2022/06/10 08:58:57;;;;;;;28.67;5.18;;;28.60;90.90;;;;;;5156347;27;20101;-69
2022/06/10 09:01:24;;;;;;;22.40;4.15;;;28.60;90.20;;;;;;5155748;27;20023;-68
2022/06/10 09:04:03;;;;;;;52.30;5.60;;;28.10;90.80;;;;;;5154160;27;20050;-68
2022/06/10 09:06:55;;;;;;;26.30;4.95;;;27.80;91.10;;;;;;5156029;27;20315;-69
2022/06/10 09:09:28;;;;;;;17.27;3.75;;;27.20;92.30;;;;;;5155193;27;20034;-68
2022/06/10 09:12:03;;;;;;;27.17;4.65;;;26.80;93.60;;;;;;5156045;27;20115;-68
2022/06/10 09:14:30;;;;;;;30.92;5.03;;;26.30;94.90;;;;;;5155502;27;20035;-68
2022/06/10 09:17:09;;;;;;;31.08;5.13;;;26.10;96.00;;;;;;5153958;27;20022;-70
2022/06/10 09:19:51;;;;;;;27.55;5.10;;;26.00;97.70;;;;;;5153924;27;20045;-69
2022/06/10 09:22:42;;;;;;;34.60;5.63;;;26.30;99.50;;;;;;5155504;27;20446;-69
2022/06/10 09:25:23;;;;;;;25.70;4.72;;;26.50;99.00;;;;;;5156030;27;20026;-69
2022/06/10 09:27:54;;;;;;;25.85;5.10;;;26.50;98.60;;;;;;5153791;27;20484;-69
2022/06/10 09:30:24;;;;;;;26.17;4.68;;;26.70;98.70;;;;;;5155581;27;20370;-68
2022/06/10 09:32:56;;;;;;;21.40;4.50;;;26.90;98.00;;;;;;5155220;27;20485;-69
2022/06/10 09:35:28;;;;;;;24.02;4.60;;;27.10;98.10;;;;;;5155189;27;20031;-68
2022/06/10 09:38:34;;;;;;;38.58;4.90;;;27.50;97.60;;;;;;5154511;27;20053;-69
2022/06/10 09:41:29;;;;;;;24.23;3.60;;;27.80;97.10;;;;;;5153236;27;20427;-69
2022/06/10 09:44:19;;;;;;;15.55;3.00;;;27.50;95.00;;;;;;5155261;27;20044;-69
2022/06/10 09:47:08;;;;;;;19.05;3.03;;;27.90;93.80;;;;;;5155095;27;20106;-70
2022/06/10 09:49:48;;;;;;;20.75;3.40;;;27.90;92.80;;;;;;5155172;27;20017;-70
2022/06/10 09:52:45;;;;;;;15.23;3.03;;;27.50;93.60;;;;;;5154589;27;20134;-68
2022/06/10 09:55:40;;;;;;;21.23;3.63;;;27.60;93.60;;;;;;5154375;27;20180;-69
2022/06/10 09:58:24;;;;;;;17.83;3.60;;;27.80;93.90;;;;;;5154791;27;20019;-69
2022/06/10 10:00:56;;;;;;;19.02;3.55;;;27.80;94.00;;;;;;5153578;27;20054;-70
2022/06/10 10:03:31;;;;;;;19.50;3.75;;;28.00;93.80;;;;;;5153221;27;20054;-68
2022/06/10 10:06:16;;;;;;;18.17;3.38;;;27.60;94.10;;;;;;5154459;27;20029;-68
2022/06/10 10:08:58;;;;;;;18.67;3.42;;;27.30;94.60;;;;;;5154608;27;20493;-68
2022/06/10 10:11:51;;;;;;;17.45;3.20;;;27.60;93.40;;;;;;5154518;27;20474;-68
2022/06/10 10:14:34;;;;;;;14.95;2.80;;;27.60;93.50;;;;;;5154741;27;20047;-68
2022/06/10 10:17:23;;;;;;;16.60;2.75;;;27.80;92.90;;;;;;5154728;27;20029;-69
2022/06/10 10:20:03;;;;;;;19.40;3.05;;;28.10;93.10;;;;;;5154542;27;20019;-68
2022/06/10 10:23:17;;;;;;;7.35;1.92;;;28.20;92.80;;;;;;5155179;27;20047;-69
2022/06/10 10:25:45;;;;;;;8.02;1.27;;;28.50;90.30;;;;;;5126842;27;20457;-69
2022/06/10 10:28:19;;;;;;;9.38;1.10;;;28.70;86.20;;;;;;5153974;27;20029;-69
2022/06/10 10:31:00;;;;;;;13.35;2.55;;;28.90;85.40;;;;;;5154920;27;20034;-68
2022/06/10 10:33:26;;;;;;;14.75;2.85;;;28.80;89.50;;;;;;5154500;27;20066;-68
2022/06/10 10:35:56;;;;;;;11.27;2.83;;;28.50;90.40;;;;;;5154237;27;20124;-69
2022/06/10 10:38:35;;;;;;;11.75;2.15;;;28.60;90.80;;;;;;5154251;27;20027;-69
2022/06/10 10:41:13;;;;;;;8.15;1.85;;;28.70;89.90;;;;;;5154311;27;20106;-69
2022/06/10 10:43:42;;;;;;;9.77;1.80;;;29.00;89.90;;;;;;5154806;27;20027;-69
2022/06/10 10:46:27;;;;;;;13.15;2.08;;;29.00;88.00;;;;;;5154376;27;20019;-69
2022/06/10 10:48:57;;;;;;;9.83;1.70;;;28.90;88.60;;;;;;5154775;27;20130;-68
2022/06/10 10:51:31;;;;;;;8.07;2.00;;;28.50;87.00;;;;;;5153855;27;20038;-69
2022/06/10 10:54:31;;;;;;;25.63;2.13;;;28.50;86.70;;;;;;5153942;27;20046;-69
2022/06/10 10:56:58;;;;;;;8.75;1.67;;;28.50;87.80;;;;;;5090290;28;20380;-69
2022/06/10 10:59:36;;;;;;;9.55;1.58;;;28.30;85.70;;;;;;5090478;28;20024;-68
2022/06/10 11:02:39;;;;;;;4.63;0.90;;;28.10;87.20;;;;;;5090374;28;20403;-69
2022/06/10 11:05:25;;;;;;;9.18;1.40;;;28.10;86.30;;;;;;5090316;28;20111;-69
2022/06/10 11:08:09;;;;;;;;;;;28.10;86.00;;;;;;5091033;28;20040;-69
2022/06/10 11:10:50;;;;;;;9.77;2.08;;;28.00;88.30;;;;;;5090233;28;19939;-69
2022/06/10 11:13:34;;;;;;;6.95;1.42;;;27.70;89.30;;;;;;5090218;28;20479;-69
2022/06/10 11:16:28;;;;;;;5.85;1.38;;;28.00;89.50;;;;;;5073357;28;20222;-69
2022/06/10 11:19:05;;;;;;;7.53;1.75;;;28.00;89.60;;;;;;5090397;28;20032;-69
2022/06/10 11:21:47;;;;;;;8.80;1.38;;;28.10;87.60;;;;;;5091148;28;20038;-69
2022/06/10 11:24:16;;;;;;;9.52;1.70;;;28.10;86.30;;;;;;5090899;28;20073;-69
2022/06/10 11:26:53;;;;;;;7.38;1.35;;;28.00;87.20;;;;;;5090472;28;20040;-68
2022/06/10 11:29:19;;;;;;;;;;;27.70;86.30;;;;;;5090736;28;20031;-69
2022/06/10 11:31:59;;;;;;;9.55;1.63;;;27.60;87.30;;;;;;5090246;28;19927;-69
2022/06/10 11:34:35;;;;;;;8.32;1.20;;;27.90;87.30;;;;;;5150586;27;20046;-69
2022/06/10 11:37:26;;;;;;;27.55;3.08;;;28.00;87.80;;;;;;5152748;27;20015;-69
2022/06/10 11:40:08;;;;;;;19.52;3.45;;;28.10;90.90;;;;;;5154492;27;20033;-69
2022/06/10 11:42:53;;;;;;;23.65;3.20;;;27.80;91.30;;;;;;5154263;27;20111;-69
2022/06/10 11:45:24;;;;;;;21.38;2.92;;;27.20;92.20;;;;;;5154223;27;20137;-69
2022/06/10 11:48:19;;;;;;;17.40;2.28;;;26.90;92.30;;;;;;5153625;27;20093;-70
2022/06/10 11:50:58;;;;;;;8.15;1.30;;;27.10;90.20;;;;;;5146525;27;20113;-69
2022/06/10 11:54:00;;;;;;;8.82;1.00;;;27.40;87.90;;;;;;5153322;27;20118;-69
2022/06/10 12:00:17;;;;;;;6.97;1.02;;;27.80;84.60;;;;;;5153624;27;20432;-69
2022/06/10 12:02:49;;;;;;;8.38;1.30;;;28.10;83.90;;;;;;5143766;27;20129;-69
2022/06/10 12:05:23;;;;;;;4.25;0.98;;;28.20;83.40;;;;;;5154000;27;20054;-70
2022/06/10 12:08:05;;;;;;;25.10;1.58;;;28.30;82.60;;;;;;5153218;27;20103;-69
2022/06/10 12:10:55;;;;;;;7.65;1.08;;;28.50;82.30;;;;;;5154033;27;20027;-69
2022/06/10 12:13:24;;;;;;;7.45;1.10;;;28.40;81.90;;;;;;5153152;27;20054;-69
2022/06/10 12:15:56;;;;;;;3.53;0.93;;;28.10;82.50;;;;;;5153866;27;20015;-69
2022/06/10 12:18:26;;;;;;;8.85;1.05;;;28.00;81.90;;;;;;5155780;27;20479;-69
2022/06/10 12:21:04;;;;;;;5.82;0.90;;;28.00;81.80;;;;;;5157709;27;20411;-69
2022/06/10 12:23:38;;;;;;;4.78;1.20;;;27.90;81.80;;;;;;5157929;27;20022;-69
2022/06/10 12:26:27;;;;;;;4.60;1.10;;;27.90;82.80;;;;;;5157051;27;20026;-69
2022/06/10 12:29:03;;;;;;;6.57;1.13;;;27.80;83.10;;;;;;5157207;27;20027;-69
2022/06/10 12:31:40;;;;;;;4.80;1.00;;;27.80;82.50;;;;;;5157352;27;20018;-69
2022/06/10 12:34:38;;;;;;;6.57;1.20;;;27.60;82.90;;;;;;5157683;27;20026;-69
2022/06/10 12:37:13;;;;;;;7.05;1.40;;;27.80;83.00;;;;;;5131804;27;20030;-69
2022/06/10 12:40:03;;;;;;;4.93;0.90;;;27.90;82.70;;;;;;5157434;27;20018;-69
2022/06/10 12:42:41;;;;;;;8.38;0.93;;;27.80;81.30;;;;;;5157552;27;20023;-69
2022/06/10 12:45:22;;;;;;;6.13;0.80;;;27.70;82.10;;;;;;5157356;27;20371;-69
2022/06/10 12:47:53;;;;;;;6.05;0.80;;;27.80;81.40;;;;;;5156954;27;20023;-69
2022/06/10 12:50:47;;;;;;;6.82;0.90;;;27.80;81.40;;;;;;5156831;27;20022;-69
2022/06/10 12:53:22;;;;;;;4.85;1.00;;;28.00;80.60;;;;;;5156864;27;20044;-68
2022/06/10 12:55:54;;;;;;;6.85;1.10;;;28.20;79.50;;;;;;5156949;27;20026;-68
2022/06/10 12:58:40;;;;;;;4.65;1.05;;;28.30;79.70;;;;;;5156398;27;20023;-68
2022/06/10 13:01:11;;;;;;;;;;;28.60;79.20;;;;;;5157270;27;20014;-68
2022/06/10 13:03:39;;;;;;;4.50;0.90;;;28.50;78.80;;;;;;5156077;27;19915;-68
2022/06/10 13:06:24;;;;;;;7.43;0.90;;;28.50;78.90;;;;;;5156073;27;20479;-68
2022/06/10 13:09:12;;;;;;;5.82;1.08;;;28.50;78.50;;;;;;5156765;27;20019;-68
2022/06/10 13:11:46;;;;;;;7.35;0.90;;;28.60;78.40;;;;;;5145074;27;20035;-68
2022/06/10 13:14:30;;;;;;;3.58;0.60;;;28.80;77.80;;;;;;5156521;27;20041;-68
2022/06/10 13:16:59;;;;;;;9.30;0.68;;;28.80;75.70;;;;;;5155917;27;20019;-67
2022/06/10 13:19:31;;;;;;;6.93;0.85;;;28.50;75.60;;;;;;5156203;27;20019;-67
2022/06/10 13:22:18;;;;;;;4.97;0.60;;;28.30;76.00;;;;;;5156551;27;20033;-69
2022/06/10 13:25:07;;;;;;;8.32;0.65;;;28.50;75.60;;;;;;5156432;27;20037;-68
2022/06/10 13:27:46;;;;;;;3.10;0.60;;;28.40;76.10;;;;;;5156291;27;20113;-67
2022/06/10 13:30:14;;;;;;;2.67;0.60;;;28.30;76.30;;;;;;5156494;27;20019;-68